Gemini — WDE6488 — position and weather

sailwx.info

Track history (hours):
 
Tides and Currents Weather Stations Pressure Air Temp Water Temp Dewpoint Dewpoint Depression Visibility Wind Speed Wind Dir Waves Ship Positions

Gemini

Owner: San Francisco Bay Area Water Emergency Transportation Authority, San Francisco, CA. More information available from US FCC via Universal Licensing System and Coast Guard Vessel Documentation Center.

Last reported at 2017-Oct-18 05:22 UTC. Time now 2017-Oct-18 11:00 UTC.
Position N 38°06' W 122°16'.

Length 35 m.

Type: Passenger vessel. MMSI: 367380880.

Date/timePositionNaut miles runAvg speedWind from/ knotsBaromVisibWave heightAir tempDewpointWater temp
2017-Oct-18 05:22N 38°06' W 122°16'0 0.0
2017-Oct-18 04:46N 38°06' W 122°16'0 0.0
2017-Oct-18 04:28N 38°06' W 122°16'0 0.0
2017-Oct-18 03:52N 38°06' W 122°16'0 0.0
2017-Oct-18 03:16N 38°06' W 122°16'0 0.0
2017-Oct-18 02:46N 38°06' W 122°16'0 0.0
2017-Oct-18 02:28N 38°06' W 122°16'0 0.0
2017-Oct-18 01:22N 38°06' W 122°16'0 0.0
2017-Oct-18 00:58N 38°06' W 122°16'0 0.0
2017-Oct-18 00:28N 38°06' W 122°16'0 0.0
2017-Oct-17 23:52N 38°06' W 122°16'0 0.0
2017-Oct-17 23:22N 38°06' W 122°16'0 0.0
2017-Oct-17 22:58N 38°06' W 122°16'0 0.0
2017-Oct-17 22:28N 38°06' W 122°16'0 0.0
2017-Oct-17 21:58N 38°06' W 122°16'0 0.0
2017-Oct-17 21:28N 38°06' W 122°16'0 0.0
2017-Oct-17 20:22N 38°06' W 122°16'0 0.0
2017-Oct-17 19:58N 38°06' W 122°16'0 0.0
2017-Oct-17 18:40N 38°06' W 122°16'0 0.0
2017-Oct-17 18:22N 38°06' W 122°16'2 6.0
2017-Oct-17 18:00N 38°04' W 122°15'816.3
2017-Oct-17 17:30N 38°00' W 122°24'1019.7
2017-Oct-17 17:00N 37°50' W 122°24'1 1.9
2017-Oct-17 16:30N 37°51' W 122°25'1020.7
2017-Oct-17 16:01N 38°01' W 122°23'710.1
2017-Oct-17 15:17N 38°06' W 122°16'310.9
2017-Oct-17 15:01N 38°03' W 122°17'1223.4
2017-Oct-17 14:31N 37°53' W 122°25'510.0
2017-Oct-17 14:01N 37°48' W 122°24'1224.3
2017-Oct-17 13:31N 38°01' W 122°24'812.3
2017-Oct-17 12:51N 38°06' W 122°16'0 0.9
2017-Oct-17 12:30N 38°06' W 122°16'0 0.0
2017-Oct-17 01:53N 38°06' W 122°16'1 3.8
2017-Oct-17 01:30N 38°05' W 122°15'1020.7
2017-Oct-17 01:01N 37°59' W 122°25'1122.1
2017-Oct-17 00:30N 37°48' W 122°24'0 0.7
2017-Oct-17 00:01N 37°48' W 122°23'1325.2
2017-Oct-16 23:30N 38°01' W 122°24'816.6
2017-Oct-16 23:00N 38°06' W 122°16'1 1.9
2017-Oct-16 22:30N 38°05' W 122°15'1019.8
2017-Oct-16 22:01N 37°59' W 122°25'1123.0
2017-Oct-16 21:31N 37°48' W 122°24'0 0.0
2017-Oct-16 21:00N 37°48' W 122°24'0 0.0
2017-Oct-16 20:30N 37°48' W 122°24'2 4.2
2017-Oct-16 20:01N 37°50' W 122°24'1223.0
2017-Oct-16 19:30N 38°01' W 122°22'713.7
2017-Oct-16 19:00N 38°06' W 122°16'0 0.5
2017-Oct-16 18:23N 38°06' W 122°16'0 0.0
2017-Oct-16 17:58N 38°06' W 122°16'3 6.5
2017-Oct-16 17:31N 38°03' W 122°17'1223.7
2017-Oct-16 17:01N 37°53' W 122°25'4 7.3
2017-Oct-16 16:30N 37°49' W 122°24'1122.9
2017-Oct-16 16:01N 38°01' W 122°24'815.7
2017-Oct-16 15:30N 38°06' W 122°16'3 5.4
2017-Oct-16 15:01N 38°03' W 122°16'1224.1
2017-Oct-16 14:31N 37°53' W 122°25'7 6.6
2017-Oct-16 13:31N 38°00' W 122°25'  
2017-Oct-14 02:04N 38°06' W 122°16'0 0.0
2017-Oct-14 01:52N 38°06' W 122°16'0 0.8
2017-Oct-14 01:30N 38°06' W 122°16'919.0
2017-Oct-14 01:01N 37°60' W 122°25'1223.5
2017-Oct-14 00:30N 37°48' W 122°24'4 7.4
2017-Oct-14 00:00N 37°51' W 122°25'1020.7
2017-Oct-13 23:31N 38°01' W 122°22'713.0
2017-Oct-13 23:00N 38°06' W 122°16'1 1.4
2017-Oct-13 22:30N 38°05' W 122°15'1019.8
2017-Oct-13 22:01N 37°59' W 122°25'1122.8
2017-Oct-13 21:30N 37°48' W 122°24'0 0.0
2017-Oct-13 21:00N 37°48' W 122°24'0 0.0
2017-Oct-13 20:31N 37°48' W 122°24'0 0.6
2017-Oct-13 20:01N 37°48' W 122°23'1224.5
2017-Oct-13 19:30N 38°00' W 122°24'816.5
2017-Oct-13 19:00N 38°06' W 122°16'0 0.6
2017-Oct-13 18:30N 38°06' W 122°16'0 0.0
2017-Oct-13 18:00N 38°06' W 122°16'2 4.4
2017-Oct-13 17:30N 38°04' W 122°15'1224.6
2017-Oct-13 17:01N 37°55' W 122°25'612.9
2017-Oct-13 16:31N 37°49' W 122°24'1223.3
2017-Oct-13 16:00N 38°01' W 122°23'816.1
2017-Oct-13 15:30N 38°06' W 122°16'3 5.4
2017-Oct-13 15:01N 38°03' W 122°17'1224.4
2017-Oct-13 14:30N 37°53' W 122°25'4 8.7
2017-Oct-13 14:01N 37°49' W 122°24'1223.4
2017-Oct-13 13:30N 38°01' W 122°24'811.7
2017-Oct-13 12:48N 38°06' W 122°16'0 0.0
2017-Oct-13 02:10N 38°06' W 122°16'0 0.0
2017-Oct-13 01:52N 38°06' W 122°16'0 0.8
2017-Oct-13 01:30N 38°06' W 122°16'917.9
2017-Oct-13 01:00N 37°60' W 122°24'1224.7
2017-Oct-13 00:30N 37°48' W 122°24'3 5.2
2017-Oct-13 00:00N 37°50' W 122°24'1122.7
2017-Oct-12 23:30N 38°02' W 122°22'710.3
2017-Oct-12 22:53N 38°06' W 122°16'2 4.0
2017-Oct-12 22:20N 38°04' W 122°15'926.5
2017-Oct-12 22:00N 37°59' W 122°25'1122.4
2017-Oct-12 21:30N 37°48' W 122°24'0 0.0
2017-Oct-12 21:00N 37°48' W 122°24'0 0.0
2017-Oct-12 20:30N 37°48' W 122°24'0 0.1
2017-Oct-12 20:00N 37°48' W 122°24'1323.6
2017-Oct-12 19:28N 38°00' W 122°24'9 5.3
2017-Oct-12 17:51N 38°06' W 122°16'2 6.8
2017-Oct-12 17:30N 38°04' W 122°16'1223.5
2017-Oct-12 17:00N 37°55' W 122°25'713.3
2017-Oct-12 16:30N 37°49' W 122°24'1323.2
2017-Oct-12 15:58N 38°01' W 122°23'713.7
2017-Oct-12 15:26N 38°06' W 122°16'3 6.6
2017-Oct-12 15:00N 38°03' W 122°17'1224.0
2017-Oct-12 14:30N 37°53' W 122°25'4 7.9
2017-Oct-12 14:00N 37°49' W 122°24'1222.3
2017-Oct-12 13:29N 38°01' W 122°23'714.8
2017-Oct-12 12:59N 38°06' W 122°16'0 0.0
2017-Oct-12 01:42N 38°06' W 122°16'1 2.9
2017-Oct-12 01:30N 38°06' W 122°15'1020.2
2017-Oct-12 01:00N 37°59' W 122°25'1122.5
2017-Oct-12 00:30N 37°48' W 122°24'0 0.6
2017-Oct-12 00:00N 37°48' W 122°24'0 0.0
2017-Oct-11 23:30N 37°48' W 122°24'0 0.0
2017-Oct-11 23:00N 37°48' W 122°24'0 0.0
2017-Oct-11 22:30N 37°48' W 122°24'0 0.0
2017-Oct-11 22:00N 37°48' W 122°24'1 1.8
2017-Oct-11 21:30N 37°49' W 122°25'1 2.7
2017-Oct-11 21:01N 37°48' W 122°23'5 9.7
2017-Oct-11 20:30N 37°48' W 122°17'5 9.9
2017-Oct-11 20:01N 37°48' W 122°24'1 2.8
2017-Oct-11 19:30N 37°49' W 122°25'0 0.2
2017-Oct-11 19:00N 37°49' W 122°25'0 0.0
2017-Oct-11 18:30N 37°49' W 122°25'1 1.5
2017-Oct-11 18:01N 37°49' W 122°25'612.2
2017-Oct-11 17:30N 37°47' W 122°18'0 0.2
2017-Oct-11 17:00N 37°48' W 122°18'1 0.0
2017-Oct-11 00:00N 37°48' W 122°17'2 4.6
2017-Oct-10 23:31N 37°48' W 122°20'4 8.1
2017-Oct-10 23:00N 37°49' W 122°25'0 0.0
2017-Oct-10 22:30N 37°49' W 122°25'1 0.0
2017-Oct-10 02:19N 37°48' W 122°24'2 6.0
2017-Oct-10 02:01N 37°48' W 122°22'3 6.2
2017-Oct-10 01:31N 37°47' W 122°18'5 9.3
2017-Oct-10 01:00N 37°48' W 122°24'2 3.7
2017-Oct-10 00:30N 37°47' W 122°22'4 7.2
2017-Oct-10 00:01N 37°48' W 122°17'2 4.5
2017-Oct-09 23:31N 37°48' W 122°20'4 7.6
2017-Oct-09 23:00N 37°49' W 122°25'1 1.8
2017-Oct-09 22:30N 37°48' W 122°24'0 0.0
2017-Oct-09 22:00N 37°48' W 122°24'0 0.0
2017-Oct-09 21:30N 37°48' W 122°24'0 0.0
2017-Oct-09 21:00N 37°48' W 122°24'0 0.0
2017-Oct-09 20:30N 37°48' W 122°24'1 1.8
2017-Oct-09 20:00N 37°49' W 122°25'0 0.3
2017-Oct-09 19:31N 37°49' W 122°25'510.7
2017-Oct-09 19:01N 37°48' W 122°18'0 0.1
2017-Oct-09 18:31N 37°48' W 122°18'510.6
2017-Oct-09 18:01N 37°49' W 122°25'1 1.8
2017-Oct-09 17:31N 37°48' W 122°24'0 0.0
2017-Oct-09 17:00N 37°48' W 122°24'0 0.0
2017-Oct-09 16:31N 37°48' W 122°24'0 0.0
2017-Oct-09 16:01N 37°48' W 122°24'0 0.0
2017-Oct-09 15:31N 37°48' W 122°24'0 0.0
2017-Oct-09 15:00N 37°48' W 122°24'0 1.0
2017-Oct-09 14:30N 37°48' W 122°23'1224.2
2017-Oct-09 14:01N 38°00' W 122°24'  
Track history (hours):
 
Tides and Currents Weather Stations Pressure Air Temp Water Temp Dewpoint Dewpoint Depression Visibility Wind Speed Wind Dir Waves Ship Positions

Gemini

Owner: San Francisco Bay Area Water Emergency Transportation Authority, San Francisco, CA. More information available from US FCC via Universal Licensing System and Coast Guard Vessel Documentation Center.

Last reported at 2017-Oct-18 05:22 UTC. Time now 2017-Oct-18 11:00 UTC.
Position N 38°06' W 122°16'.

Length 35 m.

Type: Passenger vessel. MMSI: 367380880.

Date/timePositionNaut miles runAvg speedWind from/ knotsBaromVisibWave heightAir tempDewpointWater temp
2017-Oct-18 05:22N 38°06' W 122°16'0 0.0
2017-Oct-18 04:46N 38°06' W 122°16'0 0.0
2017-Oct-18 04:28N 38°06' W 122°16'0 0.0
2017-Oct-18 03:52N 38°06' W 122°16'0 0.0
2017-Oct-18 03:16N 38°06' W 122°16'0 0.0
2017-Oct-18 02:46N 38°06' W 122°16'0 0.0
2017-Oct-18 02:28N 38°06' W 122°16'0 0.0
2017-Oct-18 01:22N 38°06' W 122°16'0 0.0
2017-Oct-18 00:58N 38°06' W 122°16'0 0.0
2017-Oct-18 00:28N 38°06' W 122°16'0 0.0
2017-Oct-17 23:52N 38°06' W 122°16'0 0.0
2017-Oct-17 23:22N 38°06' W 122°16'0 0.0
2017-Oct-17 22:58N 38°06' W 122°16'0 0.0
2017-Oct-17 22:28N 38°06' W 122°16'0 0.0
2017-Oct-17 21:58N 38°06' W 122°16'0 0.0
2017-Oct-17 21:28N 38°06' W 122°16'0 0.0
2017-Oct-17 20:22N 38°06' W 122°16'0 0.0
2017-Oct-17 19:58N 38°06' W 122°16'0 0.0
2017-Oct-17 18:40N 38°06' W 122°16'0 0.0
2017-Oct-17 18:22N 38°06' W 122°16'2 6.0
2017-Oct-17 18:00N 38°04' W 122°15'816.3
2017-Oct-17 17:30N 38°00' W 122°24'1019.7
2017-Oct-17 17:00N 37°50' W 122°24'1 1.9
2017-Oct-17 16:30N 37°51' W 122°25'1020.7
2017-Oct-17 16:01N 38°01' W 122°23'710.1
2017-Oct-17 15:17N 38°06' W 122°16'310.9
2017-Oct-17 15:01N 38°03' W 122°17'1223.4
2017-Oct-17 14:31N 37°53' W 122°25'510.0
2017-Oct-17 14:01N 37°48' W 122°24'1224.3
2017-Oct-17 13:31N 38°01' W 122°24'812.3
2017-Oct-17 12:51N 38°06' W 122°16'0 0.9
2017-Oct-17 12:30N 38°06' W 122°16'0 0.0
2017-Oct-17 01:53N 38°06' W 122°16'1 3.8
2017-Oct-17 01:30N 38°05' W 122°15'1020.7
2017-Oct-17 01:01N 37°59' W 122°25'1122.1
2017-Oct-17 00:30N 37°48' W 122°24'0 0.7
2017-Oct-17 00:01N 37°48' W 122°23'1325.2
2017-Oct-16 23:30N 38°01' W 122°24'816.6
2017-Oct-16 23:00N 38°06' W 122°16'1 1.9
2017-Oct-16 22:30N 38°05' W 122°15'1019.8
2017-Oct-16 22:01N 37°59' W 122°25'1123.0
2017-Oct-16 21:31N 37°48' W 122°24'0 0.0
2017-Oct-16 21:00N 37°48' W 122°24'0 0.0
2017-Oct-16 20:30N 37°48' W 122°24'2 4.2
2017-Oct-16 20:01N 37°50' W 122°24'1223.0
2017-Oct-16 19:30N 38°01' W 122°22'713.7
2017-Oct-16 19:00N 38°06' W 122°16'0 0.5
2017-Oct-16 18:23N 38°06' W 122°16'0 0.0
2017-Oct-16 17:58N 38°06' W 122°16'3 6.5
2017-Oct-16 17:31N 38°03' W 122°17'1223.7
2017-Oct-16 17:01N 37°53' W 122°25'4 7.3
2017-Oct-16 16:30N 37°49' W 122°24'1122.9
2017-Oct-16 16:01N 38°01' W 122°24'815.7
2017-Oct-16 15:30N 38°06' W 122°16'3 5.4
2017-Oct-16 15:01N 38°03' W 122°16'1224.1
2017-Oct-16 14:31N 37°53' W 122°25'7 6.6
2017-Oct-16 13:31N 38°00' W 122°25'  
2017-Oct-14 02:04N 38°06' W 122°16'0 0.0
2017-Oct-14 01:52N 38°06' W 122°16'0 0.8
2017-Oct-14 01:30N 38°06' W 122°16'919.0
2017-Oct-14 01:01N 37°60' W 122°25'1223.5
2017-Oct-14 00:30N 37°48' W 122°24'4 7.4
2017-Oct-14 00:00N 37°51' W 122°25'1020.7
2017-Oct-13 23:31N 38°01' W 122°22'713.0
2017-Oct-13 23:00N 38°06' W 122°16'1 1.4
2017-Oct-13 22:30N 38°05' W 122°15'1019.8
2017-Oct-13 22:01N 37°59' W 122°25'1122.8
2017-Oct-13 21:30N 37°48' W 122°24'0 0.0
2017-Oct-13 21:00N 37°48' W 122°24'0 0.0
2017-Oct-13 20:31N 37°48' W 122°24'0 0.6
2017-Oct-13 20:01N 37°48' W 122°23'1224.5
2017-Oct-13 19:30N 38°00' W 122°24'816.5
2017-Oct-13 19:00N 38°06' W 122°16'0 0.6
2017-Oct-13 18:30N 38°06' W 122°16'0 0.0
2017-Oct-13 18:00N 38°06' W 122°16'2 4.4
2017-Oct-13 17:30N 38°04' W 122°15'1224.6
2017-Oct-13 17:01N 37°55' W 122°25'612.9
2017-Oct-13 16:31N 37°49' W 122°24'1223.3
2017-Oct-13 16:00N 38°01' W 122°23'816.1
2017-Oct-13 15:30N 38°06' W 122°16'3 5.4
2017-Oct-13 15:01N 38°03' W 122°17'1224.4
2017-Oct-13 14:30N 37°53' W 122°25'4 8.7
2017-Oct-13 14:01N 37°49' W 122°24'1223.4
2017-Oct-13 13:30N 38°01' W 122°24'811.7
2017-Oct-13 12:48N 38°06' W 122°16'0 0.0
2017-Oct-13 02:10N 38°06' W 122°16'0 0.0
2017-Oct-13 01:52N 38°06' W 122°16'0 0.8
2017-Oct-13 01:30N 38°06' W 122°16'917.9
2017-Oct-13 01:00N 37°60' W 122°24'1224.7
2017-Oct-13 00:30N 37°48' W 122°24'3 5.2
2017-Oct-13 00:00N 37°50' W 122°24'1122.7
2017-Oct-12 23:30N 38°02' W 122°22'710.3
2017-Oct-12 22:53N 38°06' W 122°16'2 4.0
2017-Oct-12 22:20N 38°04' W 122°15'926.5
2017-Oct-12 22:00N 37°59' W 122°25'1122.4
2017-Oct-12 21:30N 37°48' W 122°24'0 0.0
2017-Oct-12 21:00N 37°48' W 122°24'0 0.0
2017-Oct-12 20:30N 37°48' W 122°24'0 0.1
2017-Oct-12 20:00N 37°48' W 122°24'1323.6
2017-Oct-12 19:28N 38°00' W 122°24'9 5.3
2017-Oct-12 17:51N 38°06' W 122°16'2 6.8
2017-Oct-12 17:30N 38°04' W 122°16'1223.5
2017-Oct-12 17:00N 37°55' W 122°25'713.3
2017-Oct-12 16:30N 37°49' W 122°24'1323.2
2017-Oct-12 15:58N 38°01' W 122°23'713.7
2017-Oct-12 15:26N 38°06' W 122°16'3 6.6
2017-Oct-12 15:00N 38°03' W 122°17'1224.0
2017-Oct-12 14:30N 37°53' W 122°25'4 7.9
2017-Oct-12 14:00N 37°49' W 122°24'1222.3
2017-Oct-12 13:29N 38°01' W 122°23'714.8
2017-Oct-12 12:59N 38°06' W 122°16'0 0.0
2017-Oct-12 01:42N 38°06' W 122°16'1 2.9
2017-Oct-12 01:30N 38°06' W 122°15'1020.2
2017-Oct-12 01:00N 37°59' W 122°25'1122.5
2017-Oct-12 00:30N 37°48' W 122°24'0 0.6
2017-Oct-12 00:00N 37°48' W 122°24'0 0.0
2017-Oct-11 23:30N 37°48' W 122°24'0 0.0
2017-Oct-11 23:00N 37°48' W 122°24'0 0.0
2017-Oct-11 22:30N 37°48' W 122°24'0 0.0
2017-Oct-11 22:00N 37°48' W 122°24'1 1.8
2017-Oct-11 21:30N 37°49' W 122°25'1 2.7
2017-Oct-11 21:01N 37°48' W 122°23'5 9.7
2017-Oct-11 20:30N 37°48' W 122°17'5 9.9
2017-Oct-11 20:01N 37°48' W 122°24'1 2.8
2017-Oct-11 19:30N 37°49' W 122°25'0 0.2
2017-Oct-11 19:00N 37°49' W 122°25'0 0.0
2017-Oct-11 18:30N 37°49' W 122°25'1 1.5
2017-Oct-11 18:01N 37°49' W 122°25'612.2
2017-Oct-11 17:30N 37°47' W 122°18'0 0.2
2017-Oct-11 17:00N 37°48' W 122°18'1 0.0
2017-Oct-11 00:00N 37°48' W 122°17'2 4.6
2017-Oct-10 23:31N 37°48' W 122°20'4 8.1
2017-Oct-10 23:00N 37°49' W 122°25'0 0.0
2017-Oct-10 22:30N 37°49' W 122°25'1 0.0
2017-Oct-10 02:19N 37°48' W 122°24'2 6.0
2017-Oct-10 02:01N 37°48' W 122°22'3 6.2
2017-Oct-10 01:31N 37°47' W 122°18'5 9.3
2017-Oct-10 01:00N 37°48' W 122°24'2 3.7
2017-Oct-10 00:30N 37°47' W 122°22'4 7.2
2017-Oct-10 00:01N 37°48' W 122°17'2 4.5
2017-Oct-09 23:31N 37°48' W 122°20'4 7.6
2017-Oct-09 23:00N 37°49' W 122°25'1 1.8
2017-Oct-09 22:30N 37°48' W 122°24'0 0.0
2017-Oct-09 22:00N 37°48' W 122°24'0 0.0
2017-Oct-09 21:30N 37°48' W 122°24'0 0.0
2017-Oct-09 21:00N 37°48' W 122°24'0 0.0
2017-Oct-09 20:30N 37°48' W 122°24'1 1.8
2017-Oct-09 20:00N 37°49' W 122°25'0 0.3
2017-Oct-09 19:31N 37°49' W 122°25'510.7
2017-Oct-09 19:01N 37°48' W 122°18'0 0.1
2017-Oct-09 18:31N 37°48' W 122°18'510.6
2017-Oct-09 18:01N 37°49' W 122°25'1 1.8
2017-Oct-09 17:31N 37°48' W 122°24'0 0.0
2017-Oct-09 17:00N 37°48' W 122°24'0 0.0
2017-Oct-09 16:31N 37°48' W 122°24'0 0.0
2017-Oct-09 16:01N 37°48' W 122°24'0 0.0
2017-Oct-09 15:31N 37°48' W 122°24'0 0.0
2017-Oct-09 15:00N 37°48' W 122°24'0 1.0
2017-Oct-09 14:30N 37°48' W 122°23'1224.2
2017-Oct-09 14:01N 38°00' W 122°24'  

Dump ship's entire track history